India Forums Logo

Computers, Science, Technology

India Forums > Forum Index > Computers, Science, Technology
Place to talk about computers, the internet, and any science and tech related stuff.
<< | 1 | 2 | 3 | 4 | 5 | 6 | 7 | 8 | 9 | 10 | 11 | 12 | 13 | 14 | ... >>
TIDTopic SubjectStart DateLast Entry
981491Man is the best computer6/28/2008 10:18:24 PM1/23/2009 10:28:21 PM
981492DOS computers manufactured6/28/2008 10:19:20 PM7/10/2008 1:32:52 AM
983182Social bookmarking not so popular why ?7/1/2008 8:16:27 AM7/10/2008 2:31:02 AM
986026Video Converters7/4/2008 11:07:12 AM7/4/2008 11:43:19 AM
986061Computer Virus -- Data loss!; What to do?7/4/2008 11:47:59 AM1/23/2009 10:26:03 PM
989712which window do you use!!7/9/2008 6:43:02 AM1/23/2009 10:32:17 PM
990526Computors through cybre internet !!7/10/2008 1:32:17 AM7/10/2008 2:17:56 AM
991470new iphone anyone?7/10/2008 10:26:12 PM7/20/2008 12:03:39 PM
992234Apple 3G iphone global launch today7/11/2008 4:13:22 PM7/16/2008 7:14:14 AM
993426Hindustan Electronic - PS3 - Interview7/13/2008 12:11:58 PM7/13/2008 12:11:58 PM
993765download songs7/14/2008 4:25:38 AM1/22/2009 1:52:11 AM
995008Intel launches the Centrino 2 globally7/15/2008 12:42:36 PM7/15/2008 12:42:36 PM
998260Traffic Through RSS Builder Software7/20/2008 8:19:23 AM7/20/2008 8:19:23 AM
1001870Download songs?7/24/2008 8:19:37 PM10/2/2008 6:10:54 AM
1002145Plzz help this is necessary7/25/2008 7:17:50 AM1/23/2009 10:27:06 PM
1007271What’s 3G all about?8/1/2008 6:01:43 PM8/13/2008 7:35:08 AM
10072735 to 10 3G operators in a circle. But spectrum?8/1/2008 6:04:44 PM8/1/2008 6:04:44 PM
1010695Airtel & Vodafone to launch iPhone on Aug 22 20088/6/2008 7:48:36 PM8/6/2008 7:48:36 PM
1010697Nokia braces itself for iPhone challenge8/6/2008 7:55:43 PM8/6/2008 7:55:43 PM
1010699Mobile virtual network firms get green signal8/6/2008 7:57:40 PM8/6/2008 7:57:40 PM
1011428@~Celebrate :Send an E-Mail Day ~@8/7/2008 2:39:26 PM8/10/2008 11:13:24 AM
1015278What about 3G iphone price in India8/13/2008 7:42:00 AM9/2/2008 10:32:36 AM
1016901Which is best Laptop to Purchase ?8/15/2008 4:59:51 AM6/18/2009 1:28:50 PM
1018059how can i charge my pc? plz help!8/17/2008 11:10:27 AM1/23/2009 10:53:36 PM
1022305Iphone 3G ? Hit or Fail !!!8/23/2008 7:02:21 AM8/23/2008 7:02:21 AM
1022516How To Boot Xp Faster (updated)8/23/2008 1:50:02 PM1/29/2009 3:04:17 AM
1022518Overburn CD With Nero8/23/2008 1:51:18 PM1/21/2009 9:43:57 PM
1027543Increase Download speed!8/30/2008 12:12:38 PM1/29/2009 12:44:39 AM
1031454* Computers, Science, Technology Banner C9/4/2008 3:55:45 PM9/4/2008 3:55:45 PM
1031459* GOTM - Your banned! *9/4/2008 4:06:01 PM6/19/2009 12:20:17 AM
1031471DOTM - Apple's iPhone 3G9/4/2008 4:44:37 PM10/4/2008 8:29:24 PM
1032024AP biology help.....9/5/2008 1:43:19 PM9/7/2008 12:11:25 AM
1034044((((( Test your actual internet c9/9/2008 5:16:32 AM1/21/2009 8:58:02 PM
1037409NFS Racing games ?????9/14/2008 10:19:28 AM9/14/2008 10:19:28 AM
1037633Cisco Tech Film Contest9/14/2008 11:14:12 PM9/14/2008 11:14:12 PM
1038680Need coding help, pleassse!!9/16/2008 10:46:33 AM1/23/2009 10:50:47 PM
1044640DESPERATLEY SEEKING HERLP!!bout camera!9/24/2008 10:37:14 PM9/30/2008 3:01:23 PM
1046441Happy Birthday, Google!9/27/2008 12:03:00 PM10/11/2008 4:32:40 AM
1046623should i install xp or keep vista?9/27/2008 6:49:20 PM1/23/2009 10:30:46 PM
1056536How many original softwares you buy ???10/12/2008 3:39:22 AM1/29/2009 7:57:00 PM
1056538BEST MOBILE HAND SET 2008!!!!10/12/2008 3:42:09 AM10/30/2008 2:44:56 AM
1061080need help plz jaldi10/18/2008 1:58:40 PM4/20/2009 8:08:52 AM
1062138* DOTM - Globalwarming Fixed? *10/20/2008 2:23:04 PM10/20/2008 2:23:04 PM
1062158Which phone do you have?10/20/2008 2:40:23 PM1/21/2009 8:18:31 PM
10637883G, 2G split: GSM, CDMA lobbies clash10/22/2008 6:46:07 PM10/22/2008 6:46:07 PM
1071081IPod in Australia is the cheapest11/3/2008 9:51:31 PM1/21/2009 2:28:16 AM
1074970Account/Friends gets deleted! Mysterious! HELP!!!!11/9/2008 8:46:50 PM11/9/2008 8:46:50 PM
1076232Online destination to Indian television for NRIs11/12/2008 10:30:05 AM11/12/2008 10:30:05 AM
1076235query abt cell phone11/12/2008 10:33:12 AM11/12/2008 10:33:12 AM
1076697PS3 makes this prof see stars11/13/2008 11:29:01 AM11/13/2008 11:46:24 AM
1076700Go online to get the big Bollywood break11/13/2008 11:31:52 AM11/13/2008 11:31:52 AM
1076704Now a Nano for your lap11/13/2008 11:34:59 AM11/13/2008 11:34:59 AM
1076706Be smart about your smartphone11/13/2008 11:41:14 AM11/13/2008 11:41:14 AM
1076709Chart your own course11/13/2008 11:48:08 AM11/13/2008 11:48:08 AM
1076712Now the iClone is here11/13/2008 11:51:29 AM12/1/2008 4:12:13 AM
1076714From the lap to the laptop11/13/2008 11:57:56 AM11/13/2008 11:57:56 AM
1076717Cut 'n' paste11/13/2008 12:07:31 PM11/13/2008 12:07:31 PM
1077106NEED COMPUTER HELP...URGENT!11/14/2008 10:59:21 AM1/23/2009 10:34:34 PM
1077834Are Unconventional ways of study really helpful ?11/16/2008 11:59:21 AM1/21/2009 2:12:21 AM
1081107TV help11/24/2008 9:52:08 PM1/21/2009 2:20:50 AM
1086360i need your help12/6/2008 4:28:02 AM1/23/2009 10:35:12 PM
1088952Cellphone chip promises to counter radiation12/10/2008 10:35:15 PM1/16/2009 11:01:59 AM
1092999HELP ? - to create Website,internet12/18/2008 4:17:35 AM1/23/2009 10:38:45 PM
1093425Best and the worst gadgets and gizmos of 200812/18/2008 6:06:33 PM12/18/2008 6:58:35 PM
1094409How to build supercomputer from the PS 3!12/21/2008 4:03:51 AM4/23/2009 12:42:31 AM
1094917uploading videos in facebook:Help12/22/2008 9:28:00 AM12/22/2008 9:32:57 PM
1096182Microsoft says Internet Explorer users at risk of12/24/2008 5:33:21 AM1/23/2009 10:35:51 PM
1099185whats the alt code for this?? HELP!!!12/29/2008 2:21:02 PM12/29/2008 2:21:02 PM
1103109Asia's first SAP driven conference, 23-25 Feb 20091/5/2009 2:40:32 AM1/5/2009 2:40:32 AM
1108416Wii, PS3, Xbox or DS?1/13/2009 2:38:43 PM1/18/2009 8:24:29 AM
1110323which antivirus is best1/16/2009 10:18:23 AM1/23/2009 10:39:04 PM
1110331Post your physics problem here1/16/2009 10:24:52 AM1/16/2009 10:24:52 AM
1110575Nokia debuts the N79 Active, for fitness freaks1/16/2009 8:05:11 PM1/16/2009 8:05:11 PM
1112273Acer Closes In on Dell's No. 2 PC1/19/2009 11:41:10 PM1/19/2009 11:41:10 PM
1113067Has Acer launched 23inch monitor?1/21/2009 4:28:30 AM1/21/2009 4:28:30 AM
<< | 1 | 2 | 3 | 4 | 5 | 6 | 7 | 8 | 9 | 10 | 11 | 12 | 13 | 14 | ... >>